sensor_id;sensor_type;location;lat;lon;timestamp;P1;durP1;ratioP1;P2;durP2;ratioP2
60610;SDS011;46439;51.164;13.572;2023-04-24T00:00:05;7.20;;;5.00;;
60610;SDS011;46439;51.164;13.572;2023-04-24T00:05:24;6.10;;;4.50;;
60610;SDS011;46439;51.164;13.572;2023-04-24T00:07:53;5.30;;;4.30;;
60610;SDS011;46439;51.164;13.572;2023-04-24T00:10:34;6.80;;;4.50;;
60610;SDS011;46439;51.164;13.572;2023-04-24T00:13:02;9.70;;;4.80;;
60610;SDS011;46439;51.164;13.572;2023-04-24T00:15:31;7.30;;;4.90;;
60610;SDS011;46439;51.164;13.572;2023-04-24T00:18:00;6.20;;;4.80;;
60610;SDS011;46439;51.164;13.572;2023-04-24T00:20:29;5.50;;;4.70;;
60610;SDS011;46439;51.164;13.572;2023-04-24T00:22:59;7.70;;;4.90;;
60610;SDS011;46439;51.164;13.572;2023-04-24T00:25:27;6.80;;;4.90;;
60610;SDS011;46439;51.164;13.572;2023-04-24T00:27:56;7.80;;;5.40;;
60610;SDS011;46439;51.164;13.572;2023-04-24T00:30:24;7.30;;;5.10;;
60610;SDS011;46439;51.164;13.572;2023-04-24T00:32:53;7.30;;;5.40;;
60610;SDS011;46439;51.164;13.572;2023-04-24T00:35:21;7.70;;;5.50;;
60610;SDS011;46439;51.164;13.572;2023-04-24T00:37:50;6.90;;;5.10;;
60610;SDS011;46439;51.164;13.572;2023-04-24T00:40:19;9.70;;;5.80;;
60610;SDS011;46439;51.164;13.572;2023-04-24T00:42:47;5.50;;;4.80;;
60610;SDS011;46439;51.164;13.572;2023-04-24T00:45:17;7.80;;;5.10;;
60610;SDS011;46439;51.164;13.572;2023-04-24T00:47:46;8.40;;;5.00;;
60610;SDS011;46439;51.164;13.572;2023-04-24T00:50:15;7.30;;;4.80;;
60610;SDS011;46439;51.164;13.572;2023-04-24T00:52:43;7.60;;;4.70;;
60610;SDS011;46439;51.164;13.572;2023-04-24T00:55:12;8.50;;;4.80;;
60610;SDS011;46439;51.164;13.572;2023-04-24T00:57:40;8.80;;;4.80;;
60610;SDS011;46439;51.164;13.572;2023-04-24T01:00:10;8.70;;;4.60;;
60610;SDS011;46439;51.164;13.572;2023-04-24T01:02:40;7.20;;;4.80;;
60610;SDS011;46439;51.164;13.572;2023-04-24T01:05:13;5.90;;;4.40;;
60610;SDS011;46439;51.164;13.572;2023-04-24T01:07:44;7.90;;;4.90;;
60610;SDS011;46439;51.164;13.572;2023-04-24T01:10:15;9.10;;;5.10;;
60610;SDS011;46439;51.164;13.572;2023-04-24T01:12:44;6.20;;;4.70;;
60610;SDS011;46439;51.164;13.572;2023-04-24T01:15:12;6.90;;;4.60;;
60610;SDS011;46439;51.164;13.572;2023-04-24T01:17:42;9.80;;;5.60;;
60610;SDS011;46439;51.164;13.572;2023-04-24T01:20:11;7.00;;;5.40;;
60610;SDS011;46439;51.164;13.572;2023-04-24T01:22:40;6.30;;;4.30;;
60610;SDS011;46439;51.164;13.572;2023-04-24T01:25:09;6.90;;;4.60;;
60610;SDS011;46439;51.164;13.572;2023-04-24T01:27:38;5.60;;;4.00;;
60610;SDS011;46439;51.164;13.572;2023-04-24T01:30:08;6.50;;;4.20;;
60610;SDS011;46439;51.164;13.572;2023-04-24T01:32:38;4.80;;;3.60;;
60610;SDS011;46439;51.164;13.572;2023-04-24T01:35:10;7.40;;;4.10;;
60610;SDS011;46439;51.164;13.572;2023-04-24T01:37:39;6.30;;;4.20;;
60610;SDS011;46439;51.164;13.572;2023-04-24T01:40:08;5.30;;;3.70;;
60610;SDS011;46439;51.164;13.572;2023-04-24T01:42:37;4.80;;;3.60;;
60610;SDS011;46439;51.164;13.572;2023-04-24T01:45:09;6.20;;;3.60;;
60610;SDS011;46439;51.164;13.572;2023-04-24T01:47:41;5.70;;;3.80;;
60610;SDS011;46439;51.164;13.572;2023-04-24T01:50:10;6.70;;;3.40;;
60610;SDS011;46439;51.164;13.572;2023-04-24T01:52:39;4.50;;;3.40;;
60610;SDS011;46439;51.164;13.572;2023-04-24T01:55:09;5.50;;;3.80;;
60610;SDS011;46439;51.164;13.572;2023-04-24T01:57:37;6.00;;;3.60;;
60610;SDS011;46439;51.164;13.572;2023-04-24T02:00:07;5.30;;;3.50;;
60610;SDS011;46439;51.164;13.572;2023-04-24T02:02:38;6.90;;;3.50;;
60610;SDS011;46439;51.164;13.572;2023-04-24T02:05:08;5.40;;;3.40;;
60610;SDS011;46439;51.164;13.572;2023-04-24T02:07:37;10.00;;;3.60;;
60610;SDS011;46439;51.164;13.572;2023-04-24T02:10:07;5.70;;;3.40;;
60610;SDS011;46439;51.164;13.572;2023-04-24T02:12:36;4.50;;;3.30;;
60610;SDS011;46439;51.164;13.572;2023-04-24T02:15:05;4.40;;;3.10;;
60610;SDS011;46439;51.164;13.572;2023-04-24T02:17:34;4.30;;;3.30;;
60610;SDS011;46439;51.164;13.572;2023-04-24T02:20:03;6.10;;;3.50;;
60610;SDS011;46439;51.164;13.572;2023-04-24T02:22:33;4.10;;;3.00;;
60610;SDS011;46439;51.164;13.572;2023-04-24T02:25:01;6.70;;;3.20;;
60610;SDS011;46439;51.164;13.572;2023-04-24T02:27:30;5.60;;;3.10;;
60610;SDS011;46439;51.164;13.572;2023-04-24T02:29:59;3.40;;;2.80;;
60610;SDS011;46439;51.164;13.572;2023-04-24T02:32:27;3.90;;;2.70;;
60610;SDS011;46439;51.164;13.572;2023-04-24T02:34:57;2.50;;;2.20;;
60610;SDS011;46439;51.164;13.572;2023-04-24T02:37:26;5.60;;;2.60;;
60610;SDS011;46439;51.164;13.572;2023-04-24T02:39:54;2.60;;;2.20;;
60610;SDS011;46439;51.164;13.572;2023-04-24T02:42:22;2.40;;;2.10;;
60610;SDS011;46439;51.164;13.572;2023-04-24T02:44:51;2.30;;;2.00;;
60610;SDS011;46439;51.164;13.572;2023-04-24T02:47:19;4.30;;;2.20;;
60610;SDS011;46439;51.164;13.572;2023-04-24T02:49:48;2.70;;;2.00;;
60610;SDS011;46439;51.164;13.572;2023-04-24T02:52:16;1.90;;;1.60;;
60610;SDS011;46439;51.164;13.572;2023-04-24T02:54:45;2.00;;;1.80;;
60610;SDS011;46439;51.164;13.572;2023-04-24T02:57:13;3.10;;;1.80;;
60610;SDS011;46439;51.164;13.572;2023-04-24T02:59:42;2.10;;;1.70;;
60610;SDS011;46439;51.164;13.572;2023-04-24T03:02:10;3.10;;;1.70;;
60610;SDS011;46439;51.164;13.572;2023-04-24T03:04:39;3.20;;;1.50;;
60610;SDS011;46439;51.164;13.572;2023-04-24T03:07:09;1.60;;;1.30;;
60610;SDS011;46439;51.164;13.572;2023-04-24T03:09:37;2.40;;;1.50;;
60610;SDS011;46439;51.164;13.572;2023-04-24T03:12:06;1.70;;;1.50;;
60610;SDS011;46439;51.164;13.572;2023-04-24T03:14:35;1.90;;;1.40;;
60610;SDS011;46439;51.164;13.572;2023-04-24T03:17:03;2.00;;;1.50;;
60610;SDS011;46439;51.164;13.572;2023-04-24T03:19:31;1.40;;;1.30;;
60610;SDS011;46439;51.164;13.572;2023-04-24T03:22:00;2.60;;;1.50;;
60610;SDS011;46439;51.164;13.572;2023-04-24T03:24:29;2.40;;;1.60;;
60610;SDS011;46439;51.164;13.572;2023-04-24T03:26:58;1.50;;;1.40;;
60610;SDS011;46439;51.164;13.572;2023-04-24T03:29:26;3.40;;;1.40;;
60610;SDS011;46439;51.164;13.572;2023-04-24T03:31:55;3.10;;;1.30;;
60610;SDS011;46439;51.164;13.572;2023-04-24T03:34:23;1.40;;;1.30;;
60610;SDS011;46439;51.164;13.572;2023-04-24T03:36:52;1.30;;;1.20;;
60610;SDS011;46439;51.164;13.572;2023-04-24T03:39:21;1.60;;;1.40;;
60610;SDS011;46439;51.164;13.572;2023-04-24T03:41:52;2.00;;;1.50;;
60610;SDS011;46439;51.164;13.572;2023-04-24T03:44:20;1.30;;;1.20;;
60610;SDS011;46439;51.164;13.572;2023-04-24T03:46:49;1.50;;;1.10;;
60610;SDS011;46439;51.164;13.572;2023-04-24T03:49:18;4.00;;;1.70;;
60610;SDS011;46439;51.164;13.572;2023-04-24T03:51:47;3.90;;;1.30;;
60610;SDS011;46439;51.164;13.572;2023-04-24T03:54:15;1.60;;;1.20;;
60610;SDS011;46439;51.164;13.572;2023-04-24T03:56:44;3.00;;;1.50;;
60610;SDS011;46439;51.164;13.572;2023-04-24T03:59:12;1.40;;;1.30;;
60610;SDS011;46439;51.164;13.572;2023-04-24T04:01:41;2.20;;;1.30;;
60610;SDS011;46439;51.164;13.572;2023-04-24T04:04:09;1.90;;;1.30;;
60610;SDS011;46439;51.164;13.572;2023-04-24T04:06:38;2.30;;;1.40;;
60610;SDS011;46439;51.164;13.572;2023-04-24T04:09:07;3.10;;;1.30;;
60610;SDS011;46439;51.164;13.572;2023-04-24T04:11:36;1.70;;;1.30;;
60610;SDS011;46439;51.164;13.572;2023-04-24T04:14:04;1.40;;;1.30;;
60610;SDS011;46439;51.164;13.572;2023-04-24T04:16:33;5.70;;;1.40;;
60610;SDS011;46439;51.164;13.572;2023-04-24T04:19:02;3.80;;;1.50;;
60610;SDS011;46439;51.164;13.572;2023-04-24T04:21:32;1.60;;;1.40;;
60610;SDS011;46439;51.164;13.572;2023-04-24T04:24:00;1.90;;;1.40;;
60610;SDS011;46439;51.164;13.572;2023-04-24T04:26:29;1.30;;;1.20;;
60610;SDS011;46439;51.164;13.572;2023-04-24T04:28:59;2.00;;;1.30;;
60610;SDS011;46439;51.164;13.572;2023-04-24T04:31:29;4.70;;;1.50;;
60610;SDS011;46439;51.164;13.572;2023-04-24T04:33:58;2.80;;;1.20;;
60610;SDS011;46439;51.164;13.572;2023-04-24T04:36:28;1.30;;;1.20;;
60610;SDS011;46439;51.164;13.572;2023-04-24T04:38:57;4.20;;;1.10;;
60610;SDS011;46439;51.164;13.572;2023-04-24T04:41:26;4.10;;;1.30;;
60610;SDS011;46439;51.164;13.572;2023-04-24T04:43:54;1.10;;;1.10;;
60610;SDS011;46439;51.164;13.572;2023-04-24T04:46:25;2.30;;;1.30;;
60610;SDS011;46439;51.164;13.572;2023-04-24T04:48:53;5.40;;;1.40;;
60610;SDS011;46439;51.164;13.572;2023-04-24T04:51:23;2.70;;;1.90;;
60610;SDS011;46439;51.164;13.572;2023-04-24T04:53:51;1.70;;;1.60;;
60610;SDS011;46439;51.164;13.572;2023-04-24T04:56:20;1.70;;;1.40;;
60610;SDS011;46439;51.164;13.572;2023-04-24T04:58:48;2.80;;;1.40;;
60610;SDS011;46439;51.164;13.572;2023-04-24T05:01:17;2.30;;;1.30;;
60610;SDS011;46439;51.164;13.572;2023-04-24T05:03:46;5.00;;;1.20;;
60610;SDS011;46439;51.164;13.572;2023-04-24T05:06:14;4.10;;;1.30;;
60610;SDS011;46439;51.164;13.572;2023-04-24T05:08:43;1.90;;;1.20;;
60610;SDS011;46439;51.164;13.572;2023-04-24T05:11:12;1.30;;;1.10;;
60610;SDS011;46439;51.164;13.572;2023-04-24T05:13:41;3.70;;;1.40;;
60610;SDS011;46439;51.164;13.572;2023-04-24T05:16:10;3.00;;;1.30;;
60610;SDS011;46439;51.164;13.572;2023-04-24T05:18:38;2.90;;;1.50;;
60610;SDS011;46439;51.164;13.572;2023-04-24T05:21:07;4.50;;;1.50;;
60610;SDS011;46439;51.164;13.572;2023-04-24T05:23:36;1.30;;;1.00;;
60610;SDS011;46439;51.164;13.572;2023-04-24T05:26:04;2.40;;;1.30;;
60610;SDS011;46439;51.164;13.572;2023-04-24T05:28:33;1.50;;;1.30;;
60610;SDS011;46439;51.164;13.572;2023-04-24T05:31:03;2.50;;;1.40;;
60610;SDS011;46439;51.164;13.572;2023-04-24T05:33:31;3.50;;;1.30;;
60610;SDS011;46439;51.164;13.572;2023-04-24T05:36:00;2.40;;;1.30;;
60610;SDS011;46439;51.164;13.572;2023-04-24T05:38:29;2.50;;;1.40;;
60610;SDS011;46439;51.164;13.572;2023-04-24T05:40:57;6.20;;;1.40;;
60610;SDS011;46439;51.164;13.572;2023-04-24T05:43:26;1.40;;;1.20;;
60610;SDS011;46439;51.164;13.572;2023-04-24T05:45:55;7.80;;;1.40;;
60610;SDS011;46439;51.164;13.572;2023-04-24T05:48:24;3.70;;;1.30;;
60610;SDS011;46439;51.164;13.572;2023-04-24T05:50:52;1.90;;;1.40;;
60610;SDS011;46439;51.164;13.572;2023-04-24T05:53:21;6.20;;;2.40;;
60610;SDS011;46439;51.164;13.572;2023-04-24T05:55:49;3.20;;;1.80;;
60610;SDS011;46439;51.164;13.572;2023-04-24T05:58:18;2.60;;;2.00;;
60610;SDS011;46439;51.164;13.572;2023-04-24T06:00:46;4.20;;;1.70;;
60610;SDS011;46439;51.164;13.572;2023-04-24T06:03:16;2.90;;;1.40;;
60610;SDS011;46439;51.164;13.572;2023-04-24T06:05:45;2.30;;;1.60;;
60610;SDS011;46439;51.164;13.572;2023-04-24T06:08:13;2.20;;;1.50;;
60610;SDS011;46439;51.164;13.572;2023-04-24T06:10:42;2.70;;;1.50;;
60610;SDS011;46439;51.164;13.572;2023-04-24T06:13:11;2.50;;;1.20;;
60610;SDS011;46439;51.164;13.572;2023-04-24T06:15:40;4.50;;;2.50;;
60610;SDS011;46439;51.164;13.572;2023-04-24T06:18:09;3.30;;;2.10;;
60610;SDS011;46439;51.164;13.572;2023-04-24T06:20:39;4.10;;;1.40;;
60610;SDS011;46439;51.164;13.572;2023-04-24T06:23:07;1.70;;;1.30;;
60610;SDS011;46439;51.164;13.572;2023-04-24T06:25:36;1.40;;;1.30;;
60610;SDS011;46439;51.164;13.572;2023-04-24T06:28:04;2.80;;;1.30;;
60610;SDS011;46439;51.164;13.572;2023-04-24T06:30:33;2.50;;;1.50;;
60610;SDS011;46439;51.164;13.572;2023-04-24T06:33:02;4.20;;;1.50;;
60610;SDS011;46439;51.164;13.572;2023-04-24T06:35:30;3.20;;;1.70;;
60610;SDS011;46439;51.164;13.572;2023-04-24T06:37:59;2.10;;;1.40;;
60610;SDS011;46439;51.164;13.572;2023-04-24T06:40:27;1.40;;;1.30;;
60610;SDS011;46439;51.164;13.572;2023-04-24T06:42:57;1.30;;;1.20;;
60610;SDS011;46439;51.164;13.572;2023-04-24T06:45:26;3.00;;;1.40;;
60610;SDS011;46439;51.164;13.572;2023-04-24T06:47:55;2.30;;;1.30;;
60610;SDS011;46439;51.164;13.572;2023-04-24T06:50:23;3.40;;;1.30;;
60610;SDS011;46439;51.164;13.572;2023-04-24T06:52:52;3.20;;;1.30;;
60610;SDS011;46439;51.164;13.572;2023-04-24T06:55:20;2.20;;;1.40;;
60610;SDS011;46439;51.164;13.572;2023-04-24T06:57:49;9.50;;;1.70;;
60610;SDS011;46439;51.164;13.572;2023-04-24T07:00:18;2.00;;;1.30;;
60610;SDS011;46439;51.164;13.572;2023-04-24T07:02:47;1.30;;;1.10;;
60610;SDS011;46439;51.164;13.572;2023-04-24T07:05:16;1.20;;;1.10;;
60610;SDS011;46439;51.164;13.572;2023-04-24T07:07:48;2.40;;;1.30;;
60610;SDS011;46439;51.164;13.572;2023-04-24T07:10:18;2.80;;;1.20;;
60610;SDS011;46439;51.164;13.572;2023-04-24T07:12:46;4.90;;;2.00;;
60610;SDS011;46439;51.164;13.572;2023-04-24T07:15:15;4.40;;;1.50;;
60610;SDS011;46439;51.164;13.572;2023-04-24T07:17:44;2.40;;;1.20;;
60610;SDS011;46439;51.164;13.572;2023-04-24T07:20:12;4.00;;;1.20;;
60610;SDS011;46439;51.164;13.572;2023-04-24T07:22:42;1.90;;;1.00;;
60610;SDS011;46439;51.164;13.572;2023-04-24T07:25:10;1.80;;;1.20;;
60610;SDS011;46439;51.164;13.572;2023-04-24T07:27:39;3.10;;;1.20;;
60610;SDS011;46439;51.164;13.572;2023-04-24T07:30:09;7.20;;;1.40;;
60610;SDS011;46439;51.164;13.572;2023-04-24T07:32:38;3.10;;;1.20;;
60610;SDS011;46439;51.164;13.572;2023-04-24T07:35:07;2.00;;;1.30;;
60610;SDS011;46439;51.164;13.572;2023-04-24T07:37:36;6.30;;;3.80;;
60610;SDS011;46439;51.164;13.572;2023-04-24T07:40:06;8.50;;;4.30;;
60610;SDS011;46439;51.164;13.572;2023-04-24T07:42:36;3.00;;;1.50;;
60610;SDS011;46439;51.164;13.572;2023-04-24T07:45:06;2.80;;;1.50;;
60610;SDS011;46439;51.164;13.572;2023-04-24T07:47:35;2.70;;;1.10;;
60610;SDS011;46439;51.164;13.572;2023-04-24T07:50:05;1.30;;;1.10;;
60610;SDS011;46439;51.164;13.572;2023-04-24T07:52:34;1.60;;;1.00;;
60610;SDS011;46439;51.164;13.572;2023-04-24T07:55:03;3.90;;;1.10;;
60610;SDS011;46439;51.164;13.572;2023-04-24T07:57:33;2.80;;;1.30;;
60610;SDS011;46439;51.164;13.572;2023-04-24T08:00:04;3.80;;;1.20;;
60610;SDS011;46439;51.164;13.572;2023-04-24T08:02:34;7.20;;;1.30;;
60610;SDS011;46439;51.164;13.572;2023-04-24T08:05:03;1.90;;;1.10;;
60610;SDS011;46439;51.164;13.572;2023-04-24T08:07:32;0.90;;;0.90;;
60610;SDS011;46439;51.164;13.572;2023-04-24T08:10:02;1.90;;;1.00;;
60610;SDS011;46439;51.164;13.572;2023-04-24T08:12:32;3.50;;;1.00;;
60610;SDS011;46439;51.164;13.572;2023-04-24T08:15:01;2.60;;;1.10;;
60610;SDS011;46439;51.164;13.572;2023-04-24T08:17:30;1.80;;;0.90;;
60610;SDS011;46439;51.164;13.572;2023-04-24T08:19:58;2.30;;;1.10;;
60610;SDS011;46439;51.164;13.572;2023-04-24T08:22:28;1.00;;;0.90;;
60610;SDS011;46439;51.164;13.572;2023-04-24T08:24:56;1.80;;;1.00;;
60610;SDS011;46439;51.164;13.572;2023-04-24T08:27:27;2.60;;;1.20;;
60610;SDS011;46439;51.164;13.572;2023-04-24T08:29:56;2.50;;;1.20;;
60610;SDS011;46439;51.164;13.572;2023-04-24T08:32:26;2.30;;;1.20;;
60610;SDS011;46439;51.164;13.572;2023-04-24T08:34:55;1.70;;;1.30;;
60610;SDS011;46439;51.164;13.572;2023-04-24T08:37:25;3.70;;;1.40;;
60610;SDS011;46439;51.164;13.572;2023-04-24T08:39:54;2.10;;;1.20;;
60610;SDS011;46439;51.164;13.572;2023-04-24T08:42:22;1.80;;;1.10;;
60610;SDS011;46439;51.164;13.572;2023-04-24T08:44:51;1.80;;;1.20;;
60610;SDS011;46439;51.164;13.572;2023-04-24T08:47:21;1.80;;;1.00;;
60610;SDS011;46439;51.164;13.572;2023-04-24T08:49:53;2.60;;;1.10;;
60610;SDS011;46439;51.164;13.572;2023-04-24T08:54:52;2.10;;;0.90;;
60610;SDS011;46439;51.164;13.572;2023-04-24T08:57:21;3.70;;;1.40;;
60610;SDS011;46439;51.164;13.572;2023-04-24T08:59:51;3.30;;;1.50;;
60610;SDS011;46439;51.164;13.572;2023-04-24T09:02:21;2.60;;;1.30;;
60610;SDS011;46439;51.164;13.572;2023-04-24T09:04:53;2.10;;;1.30;;
60610;SDS011;46439;51.164;13.572;2023-04-24T09:07:28;3.00;;;1.60;;
60610;SDS011;46439;51.164;13.572;2023-04-24T09:10:06;1.50;;;1.20;;
60610;SDS011;46439;51.164;13.572;2023-04-24T09:12:41;1.90;;;1.20;;
60610;SDS011;46439;51.164;13.572;2023-04-24T09:15:11;2.30;;;1.10;;
60610;SDS011;46439;51.164;13.572;2023-04-24T09:17:39;2.10;;;1.20;;
60610;SDS011;46439;51.164;13.572;2023-04-24T09:20:09;1.30;;;1.00;;
60610;SDS011;46439;51.164;13.572;2023-04-24T09:22:37;1.20;;;1.10;;
60610;SDS011;46439;51.164;13.572;2023-04-24T09:25:08;2.50;;;1.20;;
60610;SDS011;46439;51.164;13.572;2023-04-24T09:27:41;1.80;;;1.10;;
60610;SDS011;46439;51.164;13.572;2023-04-24T09:30:12;2.40;;;1.10;;
60610;SDS011;46439;51.164;13.572;2023-04-24T09:32:47;2.10;;;1.40;;
60610;SDS011;46439;51.164;13.572;2023-04-24T09:35:16;1.90;;;1.30;;
60610;SDS011;46439;51.164;13.572;2023-04-24T09:37:45;2.10;;;1.00;;
60610;SDS011;46439;51.164;13.572;2023-04-24T09:40:16;3.40;;;1.10;;
60610;SDS011;46439;51.164;13.572;2023-04-24T09:42:53;4.10;;;1.20;;
60610;SDS011;46439;51.164;13.572;2023-04-24T09:45:23;1.30;;;1.10;;
60610;SDS011;46439;51.164;13.572;2023-04-24T09:48:01;3.30;;;1.30;;
60610;SDS011;46439;51.164;13.572;2023-04-24T09:50:32;6.20;;;1.40;;
60610;SDS011;46439;51.164;13.572;2023-04-24T09:53:03;2.20;;;1.10;;
60610;SDS011;46439;51.164;13.572;2023-04-24T09:55:36;1.60;;;1.00;;
60610;SDS011;46439;51.164;13.572;2023-04-24T09:58:11;4.80;;;1.20;;
60610;SDS011;46439;51.164;13.572;2023-04-24T10:00:40;2.30;;;1.20;;
60610;SDS011;46439;51.164;13.572;2023-04-24T10:03:08;2.30;;;1.10;;
60610;SDS011;46439;51.164;13.572;2023-04-24T10:05:37;2.30;;;1.30;;
60610;SDS011;46439;51.164;13.572;2023-04-24T10:08:08;1.50;;;1.30;;
60610;SDS011;46439;51.164;13.572;2023-04-24T10:10:40;1.10;;;1.00;;
60610;SDS011;46439;51.164;13.572;2023-04-24T10:13:10;1.80;;;1.00;;
60610;SDS011;46439;51.164;13.572;2023-04-24T10:15:42;3.00;;;1.00;;
60610;SDS011;46439;51.164;13.572;2023-04-24T10:18:11;1.70;;;1.10;;
60610;SDS011;46439;51.164;13.572;2023-04-24T10:20:40;2.30;;;1.00;;
60610;SDS011;46439;51.164;13.572;2023-04-24T10:23:13;1.20;;;1.00;;
60610;SDS011;46439;51.164;13.572;2023-04-24T10:25:41;1.20;;;1.00;;
60610;SDS011;46439;51.164;13.572;2023-04-24T10:28:11;1.80;;;1.10;;
60610;SDS011;46439;51.164;13.572;2023-04-24T10:30:41;3.30;;;1.10;;
60610;SDS011;46439;51.164;13.572;2023-04-24T10:33:11;1.90;;;1.00;;
60610;SDS011;46439;51.164;13.572;2023-04-24T10:35:42;1.60;;;0.80;;
60610;SDS011;46439;51.164;13.572;2023-04-24T10:38:15;2.00;;;1.10;;
60610;SDS011;46439;51.164;13.572;2023-04-24T10:40:50;1.30;;;1.00;;
60610;SDS011;46439;51.164;13.572;2023-04-24T10:43:24;1.90;;;1.20;;
60610;SDS011;46439;51.164;13.572;2023-04-24T10:46:02;1.50;;;1.00;;
60610;SDS011;46439;51.164;13.572;2023-04-24T10:48:32;2.30;;;1.30;;
60610;SDS011;46439;51.164;13.572;2023-04-24T10:51:04;4.20;;;1.20;;
60610;SDS011;46439;51.164;13.572;2023-04-24T10:53:38;2.90;;;1.20;;
60610;SDS011;46439;51.164;13.572;2023-04-24T10:56:07;2.10;;;1.10;;
60610;SDS011;46439;51.164;13.572;2023-04-24T10:58:37;2.20;;;1.20;;
60610;SDS011;46439;51.164;13.572;2023-04-24T11:01:07;1.30;;;1.10;;
60610;SDS011;46439;51.164;13.572;2023-04-24T11:03:54;1.40;;;1.00;;
60610;SDS011;46439;51.164;13.572;2023-04-24T11:06:29;1.00;;;1.00;;
60610;SDS011;46439;51.164;13.572;2023-04-24T11:09:03;2.40;;;1.20;;
60610;SDS011;46439;51.164;13.572;2023-04-24T11:11:34;1.50;;;1.00;;
60610;SDS011;46439;51.164;13.572;2023-04-24T11:14:07;2.60;;;1.00;;
60610;SDS011;46439;51.164;13.572;2023-04-24T11:16:38;3.10;;;1.10;;
60610;SDS011;46439;51.164;13.572;2023-04-24T11:19:18;1.30;;;1.00;;
60610;SDS011;46439;51.164;13.572;2023-04-24T11:21:48;2.30;;;1.10;;
60610;SDS011;46439;51.164;13.572;2023-04-24T11:24:25;1.90;;;1.10;;
60610;SDS011;46439;51.164;13.572;2023-04-24T11:26:56;2.70;;;1.40;;
60610;SDS011;46439;51.164;13.572;2023-04-24T11:29:46;1.90;;;1.10;;
60610;SDS011;46439;51.164;13.572;2023-04-24T11:32:17;3.30;;;1.10;;
60610;SDS011;46439;51.164;13.572;2023-04-24T11:34:54;1.70;;;1.00;;
60610;SDS011;46439;51.164;13.572;2023-04-24T11:37:24;1.20;;;0.90;;
60610;SDS011;46439;51.164;13.572;2023-04-24T11:39:55;4.00;;;1.20;;
60610;SDS011;46439;51.164;13.572;2023-04-24T11:42:25;1.10;;;1.00;;
60610;SDS011;46439;51.164;13.572;2023-04-24T11:44:55;2.10;;;1.00;;
60610;SDS011;46439;51.164;13.572;2023-04-24T11:47:30;1.00;;;1.00;;
60610;SDS011;46439;51.164;13.572;2023-04-24T11:50:00;2.20;;;1.30;;
60610;SDS011;46439;51.164;13.572;2023-04-24T11:52:30;1.20;;;0.90;;
60610;SDS011;46439;51.164;13.572;2023-04-24T11:55:00;4.70;;;1.20;;
60610;SDS011;46439;51.164;13.572;2023-04-24T11:57:28;3.00;;;1.40;;
60610;SDS011;46439;51.164;13.572;2023-04-24T12:00:01;2.50;;;1.00;;
60610;SDS011;46439;51.164;13.572;2023-04-24T12:02:31;1.90;;;1.10;;
60610;SDS011;46439;51.164;13.572;2023-04-24T12:05:00;2.40;;;1.00;;
60610;SDS011;46439;51.164;13.572;2023-04-24T12:07:29;3.10;;;0.90;;
60610;SDS011;46439;51.164;13.572;2023-04-24T12:10:11;2.80;;;1.10;;
60610;SDS011;46439;51.164;13.572;2023-04-24T12:12:41;1.70;;;1.50;;
60610;SDS011;46439;51.164;13.572;2023-04-24T12:15:12;3.80;;;1.50;;
60610;SDS011;46439;51.164;13.572;2023-04-24T12:17:42;1.20;;;1.10;;
60610;SDS011;46439;51.164;13.572;2023-04-24T12:20:12;1.20;;;0.90;;
60610;SDS011;46439;51.164;13.572;2023-04-24T12:22:44;3.60;;;2.10;;
60610;SDS011;46439;51.164;13.572;2023-04-24T12:25:15;1.90;;;1.60;;
60610;SDS011;46439;51.164;13.572;2023-04-24T12:27:44;4.30;;;1.60;;
60610;SDS011;46439;51.164;13.572;2023-04-24T12:30:18;4.00;;;1.30;;
60610;SDS011;46439;51.164;13.572;2023-04-24T12:32:48;1.20;;;1.20;;
60610;SDS011;46439;51.164;13.572;2023-04-24T12:35:20;4.40;;;1.50;;
60610;SDS011;46439;51.164;13.572;2023-04-24T12:37:50;1.40;;;1.30;;
60610;SDS011;46439;51.164;13.572;2023-04-24T12:40:18;3.30;;;1.10;;
60610;SDS011;46439;51.164;13.572;2023-04-24T12:42:48;1.50;;;1.00;;
60610;SDS011;46439;51.164;13.572;2023-04-24T12:45:18;2.50;;;1.10;;
60610;SDS011;46439;51.164;13.572;2023-04-24T12:47:49;1.30;;;1.10;;
60610;SDS011;46439;51.164;13.572;2023-04-24T12:50:18;1.10;;;1.10;;
60610;SDS011;46439;51.164;13.572;2023-04-24T12:52:47;1.60;;;1.20;;
60610;SDS011;46439;51.164;13.572;2023-04-24T12:55:15;2.60;;;1.10;;
60610;SDS011;46439;51.164;13.572;2023-04-24T12:57:44;1.80;;;1.00;;
60610;SDS011;46439;51.164;13.572;2023-04-24T13:00:14;1.10;;;1.00;;
60610;SDS011;46439;51.164;13.572;2023-04-24T13:02:43;2.80;;;1.00;;
60610;SDS011;46439;51.164;13.572;2023-04-24T13:05:11;1.40;;;1.10;;
60610;SDS011;46439;51.164;13.572;2023-04-24T13:07:40;3.40;;;1.00;;
60610;SDS011;46439;51.164;13.572;2023-04-24T13:10:09;1.20;;;1.10;;
60610;SDS011;46439;51.164;13.572;2023-04-24T13:12:39;3.00;;;1.10;;
60610;SDS011;46439;51.164;13.572;2023-04-24T13:15:11;1.50;;;1.10;;
60610;SDS011;46439;51.164;13.572;2023-04-24T13:17:40;0.90;;;0.90;;
60610;SDS011;46439;51.164;13.572;2023-04-24T13:20:09;2.00;;;1.20;;
60610;SDS011;46439;51.164;13.572;2023-04-24T13:22:38;1.20;;;1.20;;
60610;SDS011;46439;51.164;13.572;2023-04-24T13:25:07;1.50;;;1.30;;
60610;SDS011;46439;51.164;13.572;2023-04-24T13:27:37;1.30;;;1.20;;
60610;SDS011;46439;51.164;13.572;2023-04-24T13:30:07;1.40;;;1.20;;
60610;SDS011;46439;51.164;13.572;2023-04-24T13:32:37;1.60;;;1.50;;
60610;SDS011;46439;51.164;13.572;2023-04-24T13:35:06;2.20;;;1.20;;
60610;SDS011;46439;51.164;13.572;2023-04-24T13:37:35;2.60;;;1.20;;
60610;SDS011;46439;51.164;13.572;2023-04-24T13:40:04;1.40;;;1.10;;
60610;SDS011;46439;51.164;13.572;2023-04-24T13:42:34;1.90;;;1.30;;
60610;SDS011;46439;51.164;13.572;2023-04-24T13:45:03;1.10;;;1.00;;
60610;SDS011;46439;51.164;13.572;2023-04-24T13:47:32;1.50;;;1.20;;
60610;SDS011;46439;51.164;13.572;2023-04-24T13:50:02;2.20;;;1.10;;
60610;SDS011;46439;51.164;13.572;2023-04-24T13:52:31;1.10;;;1.00;;
60610;SDS011;46439;51.164;13.572;2023-04-24T13:54:59;2.10;;;1.00;;
60610;SDS011;46439;51.164;13.572;2023-04-24T13:57:28;1.60;;;1.10;;
60610;SDS011;46439;51.164;13.572;2023-04-24T13:59:57;1.60;;;1.10;;
60610;SDS011;46439;51.164;13.572;2023-04-24T14:02:30;2.00;;;1.10;;
60610;SDS011;46439;51.164;13.572;2023-04-24T14:04:59;4.70;;;1.70;;
60610;SDS011;46439;51.164;13.572;2023-04-24T14:07:27;1.20;;;1.20;;
60610;SDS011;46439;51.164;13.572;2023-04-24T14:09:58;1.30;;;1.00;;
60610;SDS011;46439;51.164;13.572;2023-04-24T14:12:26;3.00;;;1.00;;
60610;SDS011;46439;51.164;13.572;2023-04-24T14:14:55;1.40;;;1.20;;
60610;SDS011;46439;51.164;13.572;2023-04-24T14:17:24;1.40;;;1.00;;
60610;SDS011;46439;51.164;13.572;2023-04-24T14:19:53;2.50;;;1.20;;
60610;SDS011;46439;51.164;13.572;2023-04-24T14:22:22;4.00;;;1.30;;
60610;SDS011;46439;51.164;13.572;2023-04-24T14:24:51;2.70;;;1.20;;
60610;SDS011;46439;51.164;13.572;2023-04-24T14:27:20;2.80;;;1.10;;
60610;SDS011;46439;51.164;13.572;2023-04-24T14:29:48;1.60;;;1.10;;
60610;SDS011;46439;51.164;13.572;2023-04-24T14:32:17;2.10;;;1.40;;
60610;SDS011;46439;51.164;13.572;2023-04-24T14:34:45;2.80;;;1.40;;
60610;SDS011;46439;51.164;13.572;2023-04-24T14:37:14;1.50;;;1.30;;
60610;SDS011;46439;51.164;13.572;2023-04-24T14:39:42;2.70;;;1.30;;
60610;SDS011;46439;51.164;13.572;2023-04-24T14:42:11;2.40;;;1.20;;
60610;SDS011;46439;51.164;13.572;2023-04-24T14:44:40;1.70;;;1.00;;
60610;SDS011;46439;51.164;13.572;2023-04-24T14:47:08;1.00;;;1.00;;
60610;SDS011;46439;51.164;13.572;2023-04-24T14:49:37;1.30;;;1.20;;
60610;SDS011;46439;51.164;13.572;2023-04-24T14:52:06;1.00;;;1.00;;